• Join FlightAware (Why Join?)
  • Login
  • US Flag GB Flag 
11:39 EDT


 

Airport Tracker/Info


-or-


 

Live Flight TrackerFlight Track Log ✈ N71ST ✈ 27-Apr-2013 ✈ KSFQ - KPDK

Flight Track Log - Related Links

Times and Time Zones

All times are in EDT time to prevent confusion due to time zone crossing. See the N71ST flight status page for this flight to view local times or setup timezone preferences in your user account.

Time Position Orientation Groundspeed Altitude Reporting Facility
EDT Latitude Longitude Course Direction KTS MPH feet Rate Location/Type
19:57 36.6922 -76.5892 360° North 96 110 900  Level Washington Center
19:58 36.6922 -76.5892 50° Northeast 90 104 1,800 720 Climbing Washington Center
19:59 36.7047 -76.6100 307° West 85 98 2,400 720 Climbing Washington Center
20:00 36.7022 -76.6411 264° West 73 84 3,200 840 Climbing Washington Center
20:01 36.7019 -76.6722 269° West 90 104 4,100 780 Climbing Washington Center
20:02 36.6997 -76.7033 265° West 90 104 4,800 660 Climbing Washington Center
20:03 36.7014 -76.7317 274° West 90 104 5,500 600 Climbing Washington Center
20:04 36.6992 -76.7628 265° West 90 104 6,000 240 Climbing Washington Center
20:05 36.6986 -76.7992 269° West 95 109 6,000  Level Washington Center
20:06 36.7003 -76.8406 273° West 107 123 6,000  Level Washington Center
20:07 36.7042 -76.8822 277° West 124 143 6,100  Climbing Washington Center
20:08 36.7078 -76.9236 276° West 124 143 6,000 -60 Descending Washington Center
20:09 36.7114 -76.9650 276° West 124 143 6,000  Level Washington Center
20:10 36.7089 -77.0092 266° West 124 143 6,100  Climbing Washington Center
20:11 36.6958 -77.0503 248° West 124 143 6,100  Level Washington Center
20:12 36.6789 -77.0864 240° Southwest 129 148 6,100  Level Washington Center
20:13 36.6617 -77.1247 241° Southwest 129 148 6,100 -60 Level Washington Center
20:14 36.6464 -77.1633 244° Southwest 134 154 6,000 -120 Descending Washington Center
20:15 36.6272 -77.2017 238° Southwest 134 154 5,900  Descending Washington Center
20:16 36.6100 -77.2375 239° Southwest 134 154 6,000  Climbing Washington Center
20:17 36.5928 -77.2761 241° Southwest 134 154 6,000  Level Washington Center
20:18 36.5736 -77.3119 236° Southwest 134 154 6,000  Level Washington Center
20:19 36.5564 -77.3503 241° Southwest 134 154 6,000  Level Washington Center
20:20 36.5389 -77.3886 240° Southwest 134 154 6,000 -60 Level Washington Center
20:21 36.5239 -77.4269 244° Southwest 134 154 5,900  Descending Washington Center
20:22 36.5067 -77.4628 239° Southwest 134 154 6,000  Climbing Washington Center
20:23 36.4872 -77.5036 239° Southwest 134 154 5,900 -60 Descending Washington Center
20:24 36.4700 -77.5369 237° Southwest 134 154 5,900  Level Washington Center
20:25 36.4547 -77.5778 245° Southwest 134 154 5,900  Level Washington Center
20:26 36.4353 -77.6108 234° Southwest 134 154 5,900  Level Washington Center
20:27 36.4136 -77.6542 238° Southwest 134 154 5,900  Level Washington Center
20:28 36.3964 -77.6925 241° Southwest 134 154 5,900  Level Washington Center
20:29 36.3769 -77.7256 234° Southwest 134 154 5,900  Level Washington Center
20:30 36.3597 -77.7661 242° Southwest 134 154 5,900  Level Washington Center
20:31 36.3442 -77.8044 243° Southwest 134 154 5,900  Level Washington Center
20:32 36.3247 -77.8400 236° Southwest 134 154 5,900 -60 Level Washington Center
20:33 36.3075 -77.8783 241° Southwest 134 154 5,800 -60 Descending Washington Center
20:34 36.2900 -77.9164 240° Southwest 134 154 5,800  Level Washington Center
20:35 36.2706 -77.9544 238° Southwest 134 154 5,800  Level Washington Center
20:35 36.2597 -77.9722 233° Southwest 128 147 5,800  Level Washington Center
20:36 36.2531 -77.9925 248° West 134 154 5,800 60 Level Washington Center
20:37 36.2356 -78.0306 240° Southwest 134 154 5,900 60 Climbing Washington Center
20:38 36.2181 -78.0661 239° Southwest 134 154 6,000  Climbing Washington Center
20:39 36.1986 -78.1042 238° Southwest 134 154 6,000  Level Washington Center
20:40 36.1833 -78.1397 242° Southwest 139 160 6,000  Level Washington Center
20:41 36.1614 -78.1828 238° Southwest 139 160 6,000  Level Washington Center
20:41 36.1486 -78.2028 232° Southwest 129 148 6,000  Level Washington Center
20:42 36.1461 -78.2131 253° West 134 154 6,000  Level Washington Center
20:42 36.1331 -78.2436 242° Southwest 128 147 6,000  Level Washington Center
20:43 36.1264 -78.2561 237° Southwest 134 154 6,000  Level Washington Center
20:43 36.1114 -78.2789 231° Southwest 129 148 6,000  Level Washington Center
20:44 36.1089 -78.2914 256° West 134 154 6,000  Level Washington Center
20:44 36.0978 -78.3194 244° Southwest 129 148 6,000  Level Washington Center
20:45 36.0914 -78.3319 238° Southwest 139 160 6,000  Level Washington Center
20:45 36.0783 -78.3547 235° Southwest 128 147 6,000 -120 Level Washington Center
20:46 36.0606 -78.3953 242° Southwest 127 146 5,900 -60 Descending Washington Center
20:47 36.0411 -78.4306 236° Southwest 128 147 5,900  Level Washington Center
20:48 36.0214 -78.4708 239° Southwest 128 147 5,900  Level Washington Center
20:49 36.0036 -78.5089 240° Southwest 128 147 6,000  Climbing Washington Center
20:50 35.9861 -78.5492 242° Southwest 129 148 6,000  Level Washington Center
20:52 35.9642 -78.5894 236° Southwest 129 148 6,000  Level Washington Center
20:53 35.9467 -78.6247 239° Southwest 129 148 6,000  Level Washington Center
20:54 35.9267 -78.6675 240° Southwest 130 150 6,000  Level Washington Center
20:55 35.9131 -78.7081 248° West 130 150 6,000  Level Washington Center
20:56 35.8933 -78.7431 235° Southwest 130 150 6,000  Level Washington Center
20:57 35.8778 -78.7861 246° West 133 153 6,000  Level Washington Center
20:58 35.8456 -78.8156 217° Southwest 147 169 6,000  Level Washington Center
20:59 35.8197 -78.8453 223° Southwest 129 148 6,000  Level Washington Center
21:00 35.7897 -78.8722 216° Southwest 130 150 6,000  Level Washington Center
21:01 35.7639 -78.9017 223° Southwest 132 152 6,000 -60 Level Washington Center
21:02 35.7400 -78.9367 230° Southwest 134 154 5,900 -60 Descending Washington Center
21:03 35.7119 -78.9686 223° Southwest 132 152 5,900  Level Washington Center
21:05 35.6703 -79.0208 226° Southwest  Level FlightAware Approximate
21:12 35.5113 -79.2193 225° Southwest  Level FlightAware Approximate
21:13 35.4882 -79.2472 224° Southwest  Level FlightAware Approximate
21:14 35.4648 -79.2747 224° Southwest  Level FlightAware Approximate
21:15 35.4413 -79.3021 224° Southwest  Level FlightAware Approximate
21:16 35.4179 -79.3295 224° Southwest  Level FlightAware Approximate
21:17 35.3945 -79.3569 224° Southwest  Level FlightAware Approximate
21:18 35.3710 -79.3843 224° Southwest  Level FlightAware Approximate
21:19 35.3475 -79.4117 224° Southwest  Level FlightAware Approximate
21:20 35.3241 -79.4390 224° Southwest  Level FlightAware Approximate
21:21 35.3006 -79.4664 224° Southwest  Level FlightAware Approximate
21:22 35.2771 -79.4937 224° Southwest  Level FlightAware Approximate
21:23 35.2537 -79.5210 224° Southwest  Level FlightAware Approximate
21:24 35.2302 -79.5483 224° Southwest  Level FlightAware Approximate
21:25 35.2067 -79.5756 224° Southwest  Level FlightAware Approximate
21:26 35.1910 -79.6095 247° West  Level FlightAware Approximate
21:27 35.1784 -79.6460 247° West  Level FlightAware Approximate
21:28 35.1659 -79.6825 247° West  Level FlightAware Approximate
21:29 35.1533 -79.7190 247° West  Level FlightAware Approximate
21:30 35.1407 -79.7555 247° West  Level FlightAware Approximate
21:31 35.1281 -79.7919 247° West  Level FlightAware Approximate
21:32 35.1154 -79.8284 247° West  Level FlightAware Approximate
21:33 35.1028 -79.8648 247° West  Level FlightAware Approximate
21:34 35.0901 -79.9013 247° West  Level FlightAware Approximate
21:34 35.0847 -79.9497 246° West 137 158 6,200  Level Atlanta Center
21:35 35.0775 -79.9377 247° West  Level FlightAware Approximate
21:35 35.0947 -80.0025 283° West 140 161 6,000  Level Atlanta Center
21:36 35.0648 -79.9741 247° West  Level FlightAware Approximate
21:36 35.1006 -80.0481 279° West 134 154 6,100  Level Atlanta Center
21:37 35.0522 -80.0105 247° West  Level FlightAware Approximate
21:37 35.1081 -80.0883 283° West 128 147 6,100  Level Atlanta Center
21:38 35.0390 -80.0467 246° West  Level FlightAware Approximate
21:38 35.1094 -80.1339 272° West 128 147 6,100  Level Atlanta Center
21:39 35.0258 -80.0828 246° West  Level FlightAware Approximate
21:39 35.1025 -80.1747 258° West 130 150 6,200  Level Atlanta Center
21:40 35.0933 -80.2183 256° West 129 148 6,100 -60 Descending Atlanta Center
21:41 35.0864 -80.2619 259° West 128 147 6,100  Level Atlanta Center
21:42 35.0731 -80.3031 248° West 124 143 6,100  Level Atlanta Center
21:43 35.0617 -80.3442 251° West 124 143 6,100  Level Atlanta Center
21:44 35.0483 -80.3828 247° West 126 145 6,100 -60 Level Atlanta Center
21:45 35.0411 -80.4239 258° West 126 145 6,000  Descending Atlanta Center
21:46 35.0342 -80.4697 260° West 129 148 6,100  Climbing Atlanta Center
21:47 35.0250 -80.5108 255° West 129 148 6,100  Level Atlanta Center
21:48 35.0158 -80.5542 256° West 128 147 6,100  Level Atlanta Center
21:49 35.0083 -80.5900 256° West 128 147 6,200  Climbing Atlanta Center
21:50 34.9992 -80.6361 256° West 127 146 6,200  Level Atlanta Center
21:51 34.9794 -80.6722 236° Southwest 127 146 6,200 -60 Level Atlanta Center
21:52 34.9533 -80.7064 227° Southwest 135 155 6,100 -60 Descending Atlanta Center
21:53 34.9311 -80.7378 229° Southwest 127 146 6,100 -60 Level Atlanta Center
21:54 34.9069 -80.7689 227° Southwest 125 144 6,000 -60 Descending Atlanta Center
21:55 34.8869 -80.8053 236° Southwest 126 145 6,000  Level Atlanta Center
21:56 34.8669 -80.8389 234° Southwest 127 146 6,000  Level Atlanta Center
21:57 34.8492 -80.8775 241° Southwest 127 146 6,000  Level Atlanta Center
21:58 34.8294 -80.9164 238° Southwest 128 147 6,000  Level Atlanta Center
21:59 34.8075 -80.9550 235° Southwest 130 150 6,100  Climbing Atlanta Center
22:00 34.7894 -80.9886 237° Southwest 129 148 6,100  Level Atlanta Center
22:01 34.7694 -81.0247 236° Southwest 129 148 6,100  Level Atlanta Center
22:02 34.7475 -81.0608 234° Southwest 129 148 6,100  Level Atlanta Center
22:03 34.7272 -81.0944 234° Southwest 126 145 6,100 -60 Level Atlanta Center
22:04 34.7094 -81.1331 241° Southwest 128 147 6,000 -60 Descending Atlanta Center
22:06 34.6897 -81.1767 241° Southwest 127 146 6,000  Level Atlanta Center
22:07 34.6725 -81.2104 238° Southwest  Level FlightAware Approximate
22:14 34.5324 -81.4308 235° Southwest  Level FlightAware Approximate
22:15 34.5138 -81.4634 235° Southwest  Level FlightAware Approximate
22:16 34.4952 -81.4959 235° Southwest  Level FlightAware Approximate
22:17 34.4804 -81.5305 256° West  Level FlightAware Approximate
22:18 34.4723 -81.5689 256° West  Level FlightAware Approximate
22:19 34.4641 -81.6072 256° West  Level FlightAware Approximate
22:20 34.4559 -81.6456 256° West  Level FlightAware Approximate
22:21 34.4477 -81.6839 255° West  Level FlightAware Approximate
22:22 34.4395 -81.7222 255° West  Level FlightAware Approximate
22:23 34.4314 -81.7605 255° West  Level FlightAware Approximate
22:24 34.4231 -81.7988 255° West  Level FlightAware Approximate
22:25 34.4149 -81.8371 255° West  Level FlightAware Approximate
22:26 34.4067 -81.8754 255° West  Level FlightAware Approximate
22:27 34.3984 -81.9137 255° West  Level FlightAware Approximate
22:28 34.3901 -81.9519 255° West  Level FlightAware Approximate
22:29 34.3819 -81.9902 255° West  Level FlightAware Approximate
22:30 34.3736 -82.0285 255° West  Level FlightAware Approximate
22:31 34.3653 -82.0667 255° West  Level FlightAware Approximate
22:31 34.3728 -82.1689 255° West 140 161 6,000  Level Atlanta Center
22:32 34.3570 -82.1049 255° West  Level FlightAware Approximate
22:32 34.3650 -82.2094 257° West 140 161 5,900  Level Atlanta Center
22:33 34.3487 -82.1432 255° West  Level FlightAware Approximate
22:33 34.3531 -82.2497 250° West 135 155 6,000  Level Atlanta Center
22:34 34.3403 -82.1814 255° West  Level FlightAware Approximate
22:34 34.3453 -82.2903 257° West 129 148 6,000  Level Atlanta Center
22:35 34.3320 -82.2196 255° West  Level FlightAware Approximate
22:35 34.3375 -82.3256 255° West 129 148 6,000  Level Atlanta Center
22:36 34.3278 -82.3711 256° West 121 139 6,000  Level Atlanta Center
22:37 34.3219 -82.4114 260° West 126 145 6,000  Level Atlanta Center
22:38 34.3119 -82.4519 253° West 126 145 6,000 -60 Level Atlanta Center
22:39 34.3042 -82.4922 257° West 126 145 5,900  Descending Atlanta Center
22:40 34.2983 -82.5300 259° West 126 145 6,000  Climbing Atlanta Center
22:41 34.2883 -82.5706 253° West 126 145 6,000  Level Atlanta Center
22:42 34.2806 -82.6083 256° West 126 145 6,000  Level Atlanta Center
22:43 34.2728 -82.6486 257° West 126 145 6,000  Level Atlanta Center
22:44 34.2647 -82.6867 256° West 126 145 6,000  Level Atlanta Center
22:45 34.2569 -82.7244 256° West 126 145 6,000  Level Atlanta Center
22:46 34.2447 -82.7597 247° West 126 145 6,000  Level Atlanta Center
22:47 34.2347 -82.7975 252° West 126 145 6,000  Level Atlanta Center
22:48 34.2225 -82.8356 249° West 126 145 6,000  Level Atlanta Center
22:49 34.2103 -82.8708 247° West 126 145 6,000 -180 Level Atlanta Center
22:50 34.1981 -82.9086 249° West 126 145 5,700 -480 Descending Atlanta Center
22:51 34.1881 -82.9489 253° West 131 151 5,100 -600 Descending Atlanta Center
22:52 34.1758 -82.9917 251° West 131 151 4,600 -600 Descending Atlanta Center
22:53 34.1639 -83.0397 253° West 137 158 4,000 -360 Descending Atlanta Center
22:54 34.1517 -83.0875 253° West 150 173 3,900 -60 Descending Atlanta Center
22:55 34.1436 -83.1278 256° West 144 166 3,900 60 Level Atlanta Center
22:56 34.1314 -83.1706 251° West 144 166 4,100  Climbing Atlanta Center
22:57 34.1211 -83.2133 254° West 144 166 4,000 -120 Descending Atlanta Center
22:58 34.1111 -83.2611 256° West 144 166 3,900 -120 Descending Atlanta Center
22:59 34.0989 -83.3064 252° West 149 171 3,800 -60 Descending Atlanta Center
23:00 34.0928 -83.3489 260° West 144 166 3,800  Level Atlanta Center
23:01 34.0786 -83.3917 248° West 144 166 3,800  Level Atlanta Center
23:02 34.0744 -83.4344 263° West 139 160 3,900  Climbing Atlanta Center
23:03 34.0622 -83.4797 252° West 139 160 3,800  Descending Atlanta Center
23:04 34.0519 -83.5222 254° West 144 166 3,900  Climbing Atlanta Center
23:05 34.0458 -83.5750 262° West 144 166 3,800 -60 Descending Atlanta Center
23:06 34.0378 -83.6203 258° West 144 166 3,800  Level Atlanta Center
23:07 34.0294 -83.6653 257° West 144 166 3,800  Level Atlanta Center
23:08 34.0214 -83.7081 257° West 139 160 3,900 60 Climbing Atlanta Center
23:09 34.0131 -83.7531 257° West 139 160 4,000  Climbing Atlanta Center
23:10 34.0028 -83.7958 254° West 139 160 4,000 -60 Level Atlanta Center
23:11 33.9925 -83.8383 254° West 139 160 3,900  Descending Atlanta Center
23:12 33.9800 -83.8833 251° West 139 160 4,000  Climbing Atlanta Center
23:13 33.9667 -83.9167 244° Southwest 136 157 4,000  Level Atlanta TRACON
23:14 33.9667 -83.9500 270° West 136 157 4,000 -180 Level Atlanta TRACON
23:15 33.9500 -84.0000 248° West 137 158 3,700 -420 Descending Atlanta TRACON
23:16 33.9333 -84.0500 248° West 148 170 3,200 -420 Descending Atlanta TRACON
23:17 33.9167 -84.0833 239° Southwest 114 131 2,900 -120 Descending Atlanta TRACON
23:18 33.9167 -84.1167 270° West 103 119 3,000  Climbing Atlanta TRACON
23:19 33.9167 -84.1500 270° West 103 119 3,000  Level Atlanta TRACON
23:20 33.9000 -84.1833 239° Southwest 104 120 3,000 -60 Level Atlanta TRACON
23:21 33.9333 -84.2000 337° Northwest 107 123 2,900  Descending Atlanta TRACON
23:22 33.9500 -84.2167 320° Northwest 103 119 3,000 60 Climbing Atlanta TRACON
23:23 33.9833 -84.2167 360° North 88 101 3,100  Climbing Atlanta TRACON
23:24 34.0000 -84.2167 360° North 98 113 3,100 -60 Level Atlanta TRACON
23:25 34.0000 -84.2333 270° West 103 119 3,000 -240 Descending Atlanta TRACON
23:26 33.9667 -84.2500 203° Southwest 92 106 2,700 -300 Descending Atlanta TRACON
23:27 33.9500 -84.2667 220° Southwest 105 121 2,500 -420 Descending Atlanta TRACON
23:28 33.9167 -84.2833 203° Southwest 96 110 1,900 -600 Descending Atlanta TRACON
23:31 33.8756 -84.3020 270° West  Level Estimated
23:38 33.8756 -84.3020 270° West  Level Estimated